DW8636 Weather Reports


Display with metric or nautical units.
time (UTC)temp
F
wind
direction
speed
MPH
gust
MPH
rain 1hr
in
rain 24hr
in
rain mn
in
humidity
%
barometer
mb
20220705163014 72 257 0.0 0.0 0.00 0.13 0.11 73 1010.3
20220705162514 72 257 0.0 0.0 0.00 0.13 0.11 74 1010.2
20220705162012 72 257 0.0 0.0 0.00 0.13 0.11 76 1010.1
20220705161511 72 257 0.0 0.0 0.00 0.13 0.11 76 1010.1
20220705161010 71 257 0.0 0.0 0.00 0.13 0.11 76 1010.1
20220705160011 71 257 0.0 0.0 0.00 0.13 0.11 79 1009.8
20220705155510 70 257 0.0 0.0 0.00 0.13 0.11 78 1009.7
20220705155007 70 257 0.0 0.0 0.00 0.13 0.11 78 1009.8
20220705154506 69 257 0.0 0.0 0.00 0.13 0.11 77 1009.7
20220705154005 69 257 0.0 0.0 0.00 0.13 0.11 78 1009.4
20220705153504 69 257 0.0 0.0 0.00 0.13 0.11 79 1009.3
20220705153002 68 257 0.0 0.0 0.00 0.13 0.11 81 1009.1
20220705152600 68 257 0.0 0.0 0.00 0.13 0.11 81 1009.0
20220705152501 68 257 0.0 0.0 0.00 0.13 0.11 81 1009.0
20220705152059 67 257 0.0 0.0 0.00 0.13 0.11 83 1008.9
20220705151559 67 257 0.0 0.0 0.00 0.13 0.11 83 1008.8
20220705151059 66 257 0.0 0.0 0.00 0.13 0.11 85 1008.6
20220705150203 65 257 0.0 0.0 0.00 0.13 0.11 89 1008.3
20220705145601 65 257 0.0 0.0 0.00 0.13 0.11 89 1008.4
20220705145059 64 257 0.0 0.0 0.00 0.13 0.11 88 1008.2
20220705144558 64 257 0.0 0.0 0.00 0.13 0.11 88 1008.0
20220705144058 64 257 0.0 0.0 0.00 0.13 0.11 87 1008.0
20220705143558 64 257 0.0 0.0 0.01 0.13 0.11 87 1007.6
20220705143057 63 257 0.0 0.0 0.02 0.13 0.11 86 1007.6
20220705142601 63 257 0.0 0.0 0.04 0.13 0.11 88 1007.5
20220705142057 62 257 0.0 0.0 0.05 0.13 0.11 88 1007.1
20220705141604 62 257 0.0 0.0 0.06 0.13 0.11 90 1007.1
20220705141057 62 257 0.0 0.0 0.06 0.13 0.11 91 1007.1
20220705140057 62 257 0.0 0.0 0.07 0.13 0.11 92 1007.7
20220705135556 62 257 0.0 0.0 0.08 0.13 0.11 92 1006.8
20220705135057 62 257 0.0 0.0 0.08 0.13 0.11 93 1006.5
20220705134553 63 257 0.0 0.0 0.09 0.13 0.11 93 1008.1
20220705134052 63 257 0.0 0.0 0.09 0.13 0.11 93 1008.3
20220705133554 63 257 0.0 0.0 0.08 0.12 0.10 92 1009.4
20220705133056 63 257 0.0 0.0 0.07 0.11 0.09 91 1010.8
20220705132550 63 257 0.0 0.0 0.06 0.10 0.08 91 1011.9
20220705132051 64 257 0.0 0.0 0.04 0.08 0.06 92 1012.4
20220705131552 64 257 0.0 0.0 0.04 0.07 0.05 92 1012.7
20220705131050 64 257 0.0 0.0 0.04 0.07 0.05 92 1012.6
20220705130053 64 257 0.0 0.0 0.03 0.06 0.04 92 1012.5
20220705125556 64 257 0.0 0.0 0.03 0.06 0.04 93 1012.5
20220705125052 64 257 0.0 0.0 0.02 0.05 0.03 93 1012.5
20220705124554 64 257 0.0 0.0 0.02 0.05 0.03 93 1012.4
20220705124055 64 257 0.0 0.0 0.01 0.04 0.02 93 1012.4
20220705123553 64 257 0.0 0.0 0.01 0.04 0.02 93 1012.5
20220705123050 64 257 0.0 0.0 0.01 0.04 0.02 93 1012.3
20220705122550 64 257 0.0 0.0 0.01 0.04 0.02 93 1012.2
20220705122050 64 257 0.0 0.0 0.01 0.04 0.02 93 1012.1
20220705121551 64 257 0.0 0.0 0.01 0.04 0.02 92 1012.2
20220705121049 64 257 0.0 0.0 0.00 0.03 0.01 92 1012.2
20220705120051 64 257 0.0 0.0 0.00 0.03 0.01 92 1012.0
20220705115551 64 257 0.0 0.0 0.00 0.03 0.01 93 1011.4
20220705115046 64 257 0.0 0.0 0.00 0.03 0.01 93 1010.8
20220705114545 64 257 0.0 0.0 0.00 0.03 0.01 93 1010.3
20220705114046 64 257 0.0 0.0 0.00 0.03 0.01 93 1009.9
20220705113546 64 257 0.0 0.0 0.00 0.03 0.01 93 1009.4
20220705113049 64 257 0.0 0.0 0.00 0.03 0.01 93 1009.5
20220705112546 64 257 0.0 0.0 0.00 0.03 0.01 93 1009.2
20220705112047 64 257 0.0 0.0 0.00 0.03 0.01 93 1008.7
20220705111545 63 257 0.0 0.0 0.00 0.03 0.01 93 1008.6
20220705111046 63 257 0.0 0.0 0.00 0.03 0.01 94 1008.5
20220705110045 63 257 0.0 0.0 0.00 0.03 0.01 93 1008.2
20220705105544 63 257 0.0 0.0 0.00 0.03 0.01 93 1008.4
20220705105042 63 257 0.0 0.0 0.00 0.03 0.01 93 1008.3
20220705104542 63 257 0.0 0.0 0.00 0.03 0.01 93 1008.3
20220705104041 63 257 0.0 0.0 0.00 0.03 0.01 93 1008.4
20220705103542 63 257 0.0 0.0 0.00 0.03 0.01 94 1008.2
20220705103049 63 257 0.0 0.0 0.00 0.03 0.01 93 1008.0
20220705102540 63 257 0.0 0.0 0.00 0.03 0.01 93 1008.3
20220705102040 63 257 0.0 0.0 0.00 0.03 0.01 94 1008.4
20220705101540 63 257 0.0 0.0 0.00 0.03 0.01 93 1008.4
20220705101038 63 257 0.0 0.0 0.00 0.03 0.01 93 1008.5
20220705100035 63 257 0.0 0.0 0.00 0.03 0.01 93 1008.8
20220705095535 63 257 0.0 0.0 0.00 0.03 0.01 93 1008.9
20220705095035 63 257 0.0 0.0 0.00 0.03 0.01 93 1008.9
20220705094538 63 257 0.0 0.0 0.00 0.03 0.01 93 1009.0
20220705094034 63 257 0.0 0.0 0.00 0.03 0.01 93 1009.2
20220705093533 63 257 0.0 0.0 0.00 0.03 0.01 93 1009.6
20220705093034 63 257 0.0 0.0 0.00 0.03 0.01 93 1009.7
20220705092636 63 257 0.0 0.0 0.00 0.03 0.01 93 1009.8
20220705092032 63 257 0.0 0.0 0.00 0.03 0.01 93 1009.7
20220705091534 64 257 0.0 0.0 0.00 0.03 0.01 93 1009.7
20220705091032 64 257 0.0 0.0 0.00 0.03 0.01 93 1009.5
20220705090036 64 257 0.0 0.0 0.00 0.03 0.01 92 1009.2
20220705085534 64 257 0.0 0.0 0.00 0.03 0.01 92 1009.5
20220705085037 64 257 0.0 0.0 0.00 0.03 0.01 92 1009.7
20220705084536 64 257 0.0 0.0 0.00 0.03 0.01 92 1010.1
20220705084034 64 257 0.0 0.0 0.00 0.03 0.01 92 1010.3
20220705083534 64 257 0.0 0.0 0.00 0.03 0.01 92 1010.3
20220705083034 64 257 0.0 0.0 0.00 0.03 0.01 92 1010.1
20220705082533 64 257 0.0 0.0 0.00 0.03 0.01 92 1010.5
20220705082033 64 257 0.0 0.0 0.01 0.03 0.01 92 1010.6
20220705081534 64 257 0.0 0.0 0.01 0.03 0.01 92 1010.5
20220705081035 64 257 0.0 0.0 0.01 0.03 0.01 92 1010.2
20220705080032 64 257 0.0 0.0 0.01 0.03 0.01 91 1009.8
20220705075532 64 257 0.0 0.0 0.01 0.03 0.01 91 1009.8
20220705075032 64 257 0.0 0.0 0.01 0.03 0.01 91 1009.6
20220705074533 64 257 0.0 0.0 0.01 0.03 0.01 91 1009.4
20220705074032 64 257 0.0 0.0 0.01 0.03 0.01 91 1009.3
20220705073531 65 257 0.0 0.0 0.01 0.03 0.01 91 1009.4
20220705073031 65 257 0.0 0.0 0.01 0.03 0.01 90 1009.5
20220705072530 65 257 0.0 0.0 0.01 0.03 0.01 89 1009.3
20220705072034 65 257 0.0 0.0 0.01 0.03 0.01 89 1009.2
20220705071545 66 257 0.0 0.0 0.00 0.02 0.00 87 1009.1
20220705071030 66 257 0.0 0.0 0.00 0.02 0.00 87 1009.2
20220705070027 67 257 0.0 0.0 0.00 0.02 0.00 85 1009.6
20220705065529 67 257 0.0 0.0 0.00 0.02 0.00 86 1009.8
20220705065026 67 257 0.0 0.0 0.00 0.02 0.00 86 1009.7
20220705064529 67 257 0.0 0.0 0.00 0.02 0.00 87 1009.8
20220705064024 67 257 0.0 0.0 0.00 0.02 0.00 88 1010.2
20220705063526 66 257 0.0 0.0 0.00 0.02 0.00 89 1010.4
20220705063022 66 257 0.0 0.0 0.00 0.02 0.00 90 1010.4
20220705062521 65 257 0.0 0.0 0.00 0.02 0.00 90 1010.6
20220705062020 65 257 0.0 0.0 0.00 0.02 0.00 90 1010.6
20220705061520 65 257 0.0 0.0 0.00 0.02 0.00 90 1010.2
20220705061018 64 257 0.0 0.0 0.00 0.02 0.00 90 1010.1
20220705060017 64 257 0.0 0.0 0.00 0.02 0.00 90 1009.8
20220705055518 64 257 0.0 0.0 0.00 0.04 0.02 89 1009.7
20220705055015 64 257 0.0 0.0 0.00 0.04 0.02 89 1009.5
20220705054521 64 257 0.0 0.0 0.00 0.04 0.02 89 1009.7
20220705054015 64 257 0.0 0.0 0.00 0.04 0.02 89 1009.4
20220705053514 65 257 0.0 0.0 0.00 0.04 0.02 89 1009.3
20220705053012 65 257 0.0 0.0 0.00 0.04 0.02 89 1009.4
20220705052513 65 257 0.0 0.0 0.00 0.04 0.02 89 1009.2
20220705052013 65 257 0.0 0.0 0.00 0.04 0.02 89 1009.2
20220705051512 65 257 0.0 0.0 0.00 0.04 0.02 88 1009.3
20220705051012 65 257 0.0 0.0 0.00 0.04 0.02 88 1009.2
20220705050012 65 257 0.0 0.0 0.00 0.04 0.02 88 1009.2
20220705045511 66 257 0.0 0.0 0.00 0.04 0.02 88 1009.2
20220705045011 66 257 0.0 0.0 0.00 0.04 0.02 87 1009.1
20220705044513 66 257 0.0 0.0 0.00 0.04 0.02 87 1009.0
20220705044010 66 257 0.0 0.0 0.00 0.04 0.02 87 1008.8
20220705043509 66 257 0.0 0.0 0.00 0.04 0.02 86 1008.5
20220705043009 66 257 0.0 0.0 0.00 0.04 0.02 86 1008.6
20220705042512 66 257 0.0 0.0 0.00 0.04 0.02 85 1008.7
20220705042008 67 257 0.0 0.0 0.00 0.04 0.02 85 1008.6
20220705041509 67 257 0.0 0.0 0.00 0.04 0.02 85 1008.6
20220705041008 67 257 0.0 0.0 0.00 0.04 0.02 85 1008.5
20220705040010 68 257 0.0 0.0 0.00 0.04 0.02 83 1008.3
20220705035509 68 257 0.0 0.0 0.00 0.31 0.02 83 1008.2
20220705035011 68 257 0.0 0.0 0.00 0.31 0.02 82 1008.3
20220705034512 69 257 0.0 0.0 0.00 0.31 0.02 81 1008.4
20220705034009 69 257 0.0 0.0 0.00 0.31 0.02 81 1008.4
20220705033509 70 257 0.0 0.0 0.00 0.31 0.02 81 1008.2
20220705033008 70 257 0.0 0.0 0.00 0.31 0.02 81 1008.2
20220705032510 70 257 0.0 0.0 0.00 0.31 0.02 80 1008.1
20220705032009 71 257 0.0 0.0 0.00 0.31 0.02 80 1008.0
20220705031509 71 257 0.0 0.0 0.00 0.31 0.02 80 1007.9
20220705031009 71 257 0.0 0.0 0.00 0.31 0.02 80 1007.9
20220705030008 73 257 0.0 0.0 0.00 0.31 0.02 78 1007.7
20220705025508 73 257 0.0 0.0 0.00 0.91 0.02 77 1007.7
20220705025007 74 257 0.0 0.0 0.00 0.91 0.02 77 1007.6
20220705024507 74 257 0.0 0.0 0.00 0.91 0.02 74 1007.6
20220705024007 75 257 0.0 0.0 0.00 0.91 0.02 74 1007.6
20220705023507 75 257 0.0 0.0 0.00 0.91 0.02 75 1007.6
20220705023007 75 257 0.0 0.0 0.00 0.91 0.02 73 1007.7
20220705022507 76 257 0.0 0.0 0.00 0.91 0.02 72 1007.7
20220705022007 76 257 0.0 0.0 0.00 0.91 0.02 72 1007.7
20220705021510 76 257 0.0 0.0 0.00 0.91 0.02 72 1007.7
20220705021008 76 257 0.0 0.0 0.00 0.91 0.02 73 1007.8
20220705020015 76 257 0.0 0.0 0.00 0.91 0.02 72 1007.8
20220705015507 77 257 0.0 0.0 0.00 0.91 0.02 71 1007.7
20220705015007 77 257 0.0 0.0 0.00 0.91 0.02 70 1007.8
20220705014507 77 257 0.0 0.0 0.00 0.91 0.02 68 1007.8
20220705014007 77 257 0.0 0.0 0.00 0.91 0.02 69 1007.8
20220705013506 77 257 0.0 0.0 0.00 0.91 0.02 67 1007.6
20220705013016 77 257 0.0 0.0 0.00 0.91 0.02 68 1007.7
20220705012506 77 257 0.0 0.0 0.00 0.91 0.02 68 1007.7
20220705012005 77 257 0.0 0.0 0.00 0.91 0.02 67 1007.6
20220705011505 77 257 0.0 0.0 0.00 0.91 0.02 67 1007.6
20220705011004 77 257 0.0 0.0 0.00 0.91 0.02 68 1007.5
20220705010012 77 257 0.0 0.0 0.00 0.91 0.02 68 1007.6
20220705005503 77 257 0.0 0.0 0.00 0.91 0.02 69 1007.6
20220705005002 76 257 0.0 0.0 0.00 0.91 0.02 68 1007.5
20220705004501 76 257 0.0 0.0 0.00 0.91 0.02 68 1007.5
20220705004104 76 257 0.0 0.0 0.00 0.91 0.02 69 1007.5
20220705003600 76 257 0.0 0.0 0.00 0.91 0.02 69 1007.4
20220705003100 76 257 0.0 0.0 0.00 0.91 0.02 70 1007.5
20220705002600 75 257 0.0 0.0 0.00 0.91 0.02 70 1007.5
20220705002059 75 257 0.0 0.0 0.00 0.91 0.02 72 1007.6
20220705001700 75 257 0.0 0.0 0.00 0.91 0.02 74 1007.6
20220705001101 75 257 0.0 0.0 0.00 0.91 0.02 74 1007.7
20220705000659 75 257 0.0 0.0 0.00 0.91 0.02 72 1007.8
20220705000059 75 257 0.0 0.0 0.00 0.91 0.02 72 1007.8
20220704235559 76 257 0.0 0.0 0.00 0.91 0.02 72 1007.8
20220704235059 76 257 0.0 0.0 0.00 0.91 0.02 72 1007.8
20220704234559 76 257 0.0 0.0 0.00 0.91 0.02 73 1007.8
20220704234058 76 257 0.0 0.0 0.00 0.91 0.02 72 1007.8
20220704233558 76 257 0.0 0.0 0.00 0.91 0.02 72 1007.8
20220704233102 76 257 0.0 0.0 0.00 0.91 0.02 73 1007.9
20220704232602 76 257 0.0 0.0 0.00 0.91 0.02 71 1007.9
20220704232058 76 257 0.0 0.0 0.00 0.91 0.02 72 1007.9
20220704231558 76 257 0.0 0.0 0.00 0.91 0.02 72 1007.9
20220704231059 75 257 0.0 0.0 0.00 0.91 0.02 73 1007.8
20220704230658 76 257 0.0 0.0 0.00 0.91 0.02 72 1007.9
20220704230059 76 257 0.0 0.0 0.00 0.91 0.02 73 1007.9
20220704225558 76 257 0.0 0.0 0.00 0.91 0.02 71 1007.9
20220704225058 76 257 0.0 0.0 0.00 0.91 0.02 71 1007.9
20220704224556 75 257 0.0 0.0 0.00 0.91 0.02 74 1007.8
20220704224057 75 257 0.0 0.0 0.00 0.91 0.02 72 1007.9
20220704223555 75 257 0.0 0.0 0.00 0.91 0.02 74 1007.8
20220704223054 75 257 0.0 0.0 0.00 0.91 0.02 72 1007.8
20220704222555 75 257 0.0 0.0 0.00 0.91 0.02 74 1007.8
20220704222057 75 257 0.0 0.0 0.00 0.91 0.02 73 1007.8
20220704221553 75 257 0.0 0.0 0.00 0.91 0.02 75 1007.8
20220704221053 75 257 0.0 0.0 0.00 0.91 0.02 73 1007.8
20220704220654 74 257 0.0 0.0 0.00 0.91 0.02 74 1007.7
20220704220053 74 257 0.0 0.0 0.00 0.91 0.02 74 1007.7
20220704215553 74 257 0.0 0.0 0.00 0.91 0.02 74 1007.8
20220704215053 74 257 0.0 0.0 0.00 0.91 0.02 74 1007.8
20220704214552 74 257 0.0 0.0 0.00 0.91 0.02 74 1007.9
20220704214053 74 257 0.0 0.0 0.00 0.91 0.02 74 1007.9
20220704213553 74 257 0.0 0.0 0.00 0.91 0.02 76 1007.8
20220704213050 74 257 0.0 0.0 0.00 0.91 0.02 76 1007.7
20220704212550 73 257 0.0 0.0 0.00 0.91 0.02 77 1007.4
20220704212050 73 257 0.0 0.0 0.00 0.91 0.02 78 1007.3
20220704211549 73 257 0.0 0.0 0.00 0.91 0.02 77 1007.3
20220704211048 73 257 0.0 0.0 0.00 0.91 0.02 77 1007.3
20220704210647 72 257 0.0 0.0 0.00 0.91 0.02 79 1007.2
20220704210055 72 257 0.0 0.0 0.00 0.91 0.02 80 1007.2
20220704205547 72 257 0.0 0.0 0.00 0.91 0.02 79 1007.3
20220704205044 71 257 0.0 0.0 0.00 0.91 0.02 82 1007.3
20220704204554 71 257 0.0 0.0 0.00 0.91 0.02 80 1007.4
20220704204044 71 257 0.0 0.0 0.00 0.91 0.02 80 1007.3
20220704203544 71 257 0.0 0.0 0.00 0.91 0.02 81 1007.3
20220704203043 71 257 0.0 0.0 0.00 0.91 0.02 81 1007.3
20220704202545 71 257 0.0 0.0 0.00 0.91 0.02 83 1007.2
20220704202043 71 257 0.0 0.0 0.00 0.91 0.02 84 1007.2
20220704201543 70 257 0.0 0.0 0.00 0.91 0.02 83 1007.3
20220704201045 70 257 0.0 0.0 0.00 0.91 0.02 85 1007.4
20220704200645 69 257 0.0 0.0 0.01 0.91 0.02 85 1007.5
20220704200053 69 257 0.0 0.0 0.01 0.91 0.02 85 1007.3
20220704195544 69 257 0.0 0.0 0.01 0.91 0.02 87 1007.1
20220704195047 69 257 0.0 0.0 0.01 0.91 0.02 87 1006.9
20220704194543 69 257 0.0 0.0 0.01 0.91 0.02 90 1006.6
20220704194046 68 257 0.0 0.0 0.01 0.91 0.02 88 1006.8
20220704193542 67 257 0.0 0.0 0.01 0.91 0.02 89 1006.9
20220704193045 67 257 0.0 0.0 0.01 0.91 0.02 88 1006.4
20220704192543 67 257 0.0 0.0 0.01 0.91 0.02 88 1006.3
20220704192044 67 257 0.0 0.0 0.01 0.91 0.02 87 1006.2
20220704191545 67 257 0.0 0.0 0.02 0.91 0.02 87 1006.7
20220704191045 68 257 0.0 0.0 0.02 0.91 0.02 87 1007.4
20220704190643 68 257 0.0 0.0 0.01 0.90 0.01 87 1006.4
20220704190050 68 257 0.0 0.0 0.01 0.90 0.01 86 1006.7
20220704185542 68 257 0.0 0.0 0.01 0.90 0.01 87 1006.6
20220704185042 68 257 0.0 0.0 0.01 0.90 0.01 87 1007.5
20220704184543 68 257 0.0 0.0 0.01 0.90 0.01 87 1008.2
20220704184042 68 257 0.0 0.0 0.01 0.90 0.01 87 1007.8
20220704183542 68 257 0.0 0.0 0.01 0.90 0.01 86 1007.7
20220704183045 68 257 0.0 0.0 0.01 0.90 0.01 85 1007.6
20220704182542 68 257 0.0 0.0 0.01 0.90 0.01 84 1007.7
20220704182041 69 257 0.0 0.0 0.01 0.90 0.01 84 1008.1
20220704181541 69 257 0.0 0.0 0.00 0.89 0.00 83 1008.4
20220704181041 70 257 0.0 0.0 0.00 0.89 0.00 80 1007.5
20220704180643 70 257 0.0 0.0 0.00 0.89 0.00 79 1008.4
20220704180041 70 257 0.0 0.0 0.00 0.89 0.00 78 1008.4
20220704175542 71 257 0.0 0.0 0.00 0.89 0.00 78 1008.3
20220704175041 71 257 0.0 0.0 0.00 0.89 0.00 78 1008.7
20220704174541 71 257 0.0 0.0 0.00 0.89 0.00 76 1008.9
20220704174040 71 257 0.0 0.0 0.00 0.89 0.00 76 1008.8
20220704173540 71 257 0.0 0.0 0.00 0.89 0.00 75 1008.5
20220704173041 72 257 0.0 0.0 0.00 0.89 0.00 76 1008.4
20220704172539 72 257 0.0 0.0 0.00 0.89 0.00 77 1008.3
20220704172036 71 257 0.0 0.0 0.00 0.89 0.00 79 1007.9
20220704171535 71 257 0.0 0.0 0.00 0.89 0.00 77 1007.4
20220704171034 71 257 0.0 0.0 0.00 0.89 0.00 77 1007.2
20220704170633 70 257 0.0 0.0 0.00 0.89 0.00 81 1007.5
20220704170031 70 257 0.0 0.0 0.00 0.89 0.00 81 1007.4
20220704165533 70 257 0.0 0.0 0.00 0.89 0.00 80 1007.4
20220704165029 70 257 0.0 0.0 0.00 0.89 0.00 82 1007.4
20220704164530 69 257 0.0 0.0 0.00 0.89 0.00 81 1007.2
20220704164029 69 257 0.0 0.0 0.00 0.89 0.00 80 1007.2
20220704163527 69 257 0.0 0.0 0.00 0.89 0.00 82 1007.3